SLBT weather

Buen Retiro Ballivian Airport
Ballivian, El Beni Department, Bolivia

Public forecast

Using degrees Celsius for public forecast. Weather courtesy of forecast.io.

METAR (pilot weather report)

Report is more than 6 hours old.

Closest report is Santa Rosa De Yacuma Airport, 17.0 nm (31.5 km) SW. Retrieved 2019/04/27 16:00 UTC (23 days ago):

SLSR 271600Z 34008KT 8000 VCSH SCT017 FEW023CB BKN200 31/25 Q1012

TAF (pilot weather forecast)

Closest forecast is Teniente Av. Jorge Henrich Arauz Airport, 109.8 nm (203.3 km) ESE. Retrieved 2019/05/20 12:00 UTC (2 hours ago):

TAF SLTR 201000Z 2012/2112 00000KT 9999 NSC TX32/2020Z TN19/2111Z TEMPO 2016/2020 34010KT FEW020